sensor_id;sensor_type;location;lat;lon;timestamp;temperature;humidity
64468;DHT22;50853;46.836;16.820;2023-11-22T00:00:34;10.90;85.60
64468;DHT22;50853;46.836;16.820;2023-11-22T00:02:59;10.90;85.60
64468;DHT22;50853;46.836;16.820;2023-11-22T00:05:25;11.00;85.60
64468;DHT22;50853;46.836;16.820;2023-11-22T00:07:51;11.00;85.60
64468;DHT22;50853;46.836;16.820;2023-11-22T00:10:17;10.90;85.40
64468;DHT22;50853;46.836;16.820;2023-11-22T00:12:43;11.00;85.60
64468;DHT22;50853;46.836;16.820;2023-11-22T00:15:09;10.90;85.50
64468;DHT22;50853;46.836;16.820;2023-11-22T00:17:37;10.90;85.40
64468;DHT22;50853;46.836;16.820;2023-11-22T00:20:04;10.90;85.50
64468;DHT22;50853;46.836;16.820;2023-11-22T00:22:32;10.90;85.60
64468;DHT22;50853;46.836;16.820;2023-11-22T00:24:59;11.00;85.40
64468;DHT22;50853;46.836;16.820;2023-11-22T00:27:27;10.90;85.40
64468;DHT22;50853;46.836;16.820;2023-11-22T00:29:53;11.00;85.60
64468;DHT22;50853;46.836;16.820;2023-11-22T00:32:19;10.90;85.30
64468;DHT22;50853;46.836;16.820;2023-11-22T00:34:45;10.90;85.20
64468;DHT22;50853;46.836;16.820;2023-11-22T00:37:11;10.90;85.50
64468;DHT22;50853;46.836;16.820;2023-11-22T00:39:36;10.90;85.30
64468;DHT22;50853;46.836;16.820;2023-11-22T00:42:03;10.90;85.40
64468;DHT22;50853;46.836;16.820;2023-11-22T00:44:30;10.90;85.30
64468;DHT22;50853;46.836;16.820;2023-11-22T00:46:56;10.90;85.20
64468;DHT22;50853;46.836;16.820;2023-11-22T00:49:23;10.90;85.40
64468;DHT22;50853;46.836;16.820;2023-11-22T00:51:49;10.90;85.30
64468;DHT22;50853;46.836;16.820;2023-11-22T00:54:16;10.90;85.20
64468;DHT22;50853;46.836;16.820;2023-11-22T00:56:42;10.90;85.30
64468;DHT22;50853;46.836;16.820;2023-11-22T00:59:08;10.90;85.30
64468;DHT22;50853;46.836;16.820;2023-11-22T01:01:34;10.90;85.40
64468;DHT22;50853;46.836;16.820;2023-11-22T01:04:00;10.90;85.40
64468;DHT22;50853;46.836;16.820;2023-11-22T01:06:26;10.90;85.30
64468;DHT22;50853;46.836;16.820;2023-11-22T01:08:52;10.90;85.20
64468;DHT22;50853;46.836;16.820;2023-11-22T01:11:18;10.90;85.20
64468;DHT22;50853;46.836;16.820;2023-11-22T01:13:44;10.90;85.30
64468;DHT22;50853;46.836;16.820;2023-11-22T01:16:10;10.90;85.10
64468;DHT22;50853;46.836;16.820;2023-11-22T01:18:36;10.90;85.30
64468;DHT22;50853;46.836;16.820;2023-11-22T01:21:02;10.90;85.20
64468;DHT22;50853;46.836;16.820;2023-11-22T01:23:32;10.90;85.30
64468;DHT22;50853;46.836;16.820;2023-11-22T01:25:58;10.90;85.20
64468;DHT22;50853;46.836;16.820;2023-11-22T01:28:28;10.90;85.00
64468;DHT22;50853;46.836;16.820;2023-11-22T01:30:54;10.90;85.30
64468;DHT22;50853;46.836;16.820;2023-11-22T01:33:21;10.90;85.20
64468;DHT22;50853;46.836;16.820;2023-11-22T01:35:47;10.90;85.10
64468;DHT22;50853;46.836;16.820;2023-11-22T01:38:14;10.90;85.00
64468;DHT22;50853;46.836;16.820;2023-11-22T01:40:46;10.90;85.20
64468;DHT22;50853;46.836;16.820;2023-11-22T01:43:17;10.90;85.20
64468;DHT22;50853;46.836;16.820;2023-11-22T01:45:44;10.90;85.00
64468;DHT22;50853;46.836;16.820;2023-11-22T01:48:13;10.80;85.20
64468;DHT22;50853;46.836;16.820;2023-11-22T01:50:40;10.90;85.10
64468;DHT22;50853;46.836;16.820;2023-11-22T01:53:08;10.90;85.10
64468;DHT22;50853;46.836;16.820;2023-11-22T01:55:35;10.80;85.10
64468;DHT22;50853;46.836;16.820;2023-11-22T01:58:01;10.80;85.10
64468;DHT22;50853;46.836;16.820;2023-11-22T02:00:44;10.80;85.10
64468;DHT22;50853;46.836;16.820;2023-11-22T02:03:11;10.80;85.00
64468;DHT22;50853;46.836;16.820;2023-11-22T02:05:42;10.80;84.80
64468;DHT22;50853;46.836;16.820;2023-11-22T02:08:12;10.80;85.00
64468;DHT22;50853;46.836;16.820;2023-11-22T02:10:38;10.80;85.10
64468;DHT22;50853;46.836;16.820;2023-11-22T02:13:07;10.80;85.00
64468;DHT22;50853;46.836;16.820;2023-11-22T02:15:39;10.80;85.00
64468;DHT22;50853;46.836;16.820;2023-11-22T02:18:05;10.80;85.00
64468;DHT22;50853;46.836;16.820;2023-11-22T02:20:34;10.80;85.00
64468;DHT22;50853;46.836;16.820;2023-11-22T02:23:11;10.80;84.90
64468;DHT22;50853;46.836;16.820;2023-11-22T02:25:37;10.80;84.80
64468;DHT22;50853;46.836;16.820;2023-11-22T02:28:03;10.80;84.90
64468;DHT22;50853;46.836;16.820;2023-11-22T02:30:29;10.80;84.90
64468;DHT22;50853;46.836;16.820;2023-11-22T02:32:55;10.80;85.00
64468;DHT22;50853;46.836;16.820;2023-11-22T02:35:21;10.80;84.90
64468;DHT22;50853;46.836;16.820;2023-11-22T02:37:46;10.80;84.90
64468;DHT22;50853;46.836;16.820;2023-11-22T02:40:19;10.80;85.00
64468;DHT22;50853;46.836;16.820;2023-11-22T02:42:54;10.80;84.90
64468;DHT22;50853;46.836;16.820;2023-11-22T02:45:26;10.80;84.80
64468;DHT22;50853;46.836;16.820;2023-11-22T02:47:52;10.80;84.90
64468;DHT22;50853;46.836;16.820;2023-11-22T02:50:18;10.80;84.90
64468;DHT22;50853;46.836;16.820;2023-11-22T02:52:44;10.80;84.80
64468;DHT22;50853;46.836;16.820;2023-11-22T02:55:10;10.80;84.70
64468;DHT22;50853;46.836;16.820;2023-11-22T02:57:39;10.80;84.80
64468;DHT22;50853;46.836;16.820;2023-11-22T03:00:06;10.80;84.80
64468;DHT22;50853;46.836;16.820;2023-11-22T03:02:41;10.80;84.80
64468;DHT22;50853;46.836;16.820;2023-11-22T03:05:10;10.80;84.80
64468;DHT22;50853;46.836;16.820;2023-11-22T03:07:37;10.80;84.70
64468;DHT22;50853;46.836;16.820;2023-11-22T03:10:04;10.80;84.70
64468;DHT22;50853;46.836;16.820;2023-11-22T03:12:30;10.80;84.60
64468;DHT22;50853;46.836;16.820;2023-11-22T03:14:56;10.80;84.70
64468;DHT22;50853;46.836;16.820;2023-11-22T03:17:28;10.80;84.60
64468;DHT22;50853;46.836;16.820;2023-11-22T03:19:55;10.80;84.50
64468;DHT22;50853;46.836;16.820;2023-11-22T03:22:26;10.80;84.70
64468;DHT22;50853;46.836;16.820;2023-11-22T03:24:55;10.70;85.10
64468;DHT22;50853;46.836;16.820;2023-11-22T03:27:21;10.70;84.70
64468;DHT22;50853;46.836;16.820;2023-11-22T03:29:48;10.80;84.70
64468;DHT22;50853;46.836;16.820;2023-11-22T03:32:14;10.70;84.50
64468;DHT22;50853;46.836;16.820;2023-11-22T03:34:40;10.80;84.60
64468;DHT22;50853;46.836;16.820;2023-11-22T03:37:06;10.80;84.60
64468;DHT22;50853;46.836;16.820;2023-11-22T03:39:32;10.70;84.50
64468;DHT22;50853;46.836;16.820;2023-11-22T03:41:58;10.70;84.50
64468;DHT22;50853;46.836;16.820;2023-11-22T03:44:24;10.70;84.20
64468;DHT22;50853;46.836;16.820;2023-11-22T03:46:50;10.70;84.50
64468;DHT22;50853;46.836;16.820;2023-11-22T03:49:16;10.70;84.50
64468;DHT22;50853;46.836;16.820;2023-11-22T03:51:42;10.70;84.50
64468;DHT22;50853;46.836;16.820;2023-11-22T03:54:08;10.70;84.40
64468;DHT22;50853;46.836;16.820;2023-11-22T03:56:36;10.80;84.40
64468;DHT22;50853;46.836;16.820;2023-11-22T03:59:02;10.70;84.40
64468;DHT22;50853;46.836;16.820;2023-11-22T04:01:29;10.70;84.50
64468;DHT22;50853;46.836;16.820;2023-11-22T04:03:55;10.70;84.40
64468;DHT22;50853;46.836;16.820;2023-11-22T04:06:21;10.70;84.40
64468;DHT22;50853;46.836;16.820;2023-11-22T04:08:47;10.70;84.40
64468;DHT22;50853;46.836;16.820;2023-11-22T04:11:13;10.70;84.40
64468;DHT22;50853;46.836;16.820;2023-11-22T04:13:39;10.70;84.40
64468;DHT22;50853;46.836;16.820;2023-11-22T04:16:07;10.70;84.40
64468;DHT22;50853;46.836;16.820;2023-11-22T04:18:41;10.70;84.40
64468;DHT22;50853;46.836;16.820;2023-11-22T04:21:08;10.70;84.30
64468;DHT22;50853;46.836;16.820;2023-11-22T04:23:34;10.70;84.30
64468;DHT22;50853;46.836;16.820;2023-11-22T04:26:02;10.70;84.30
64468;DHT22;50853;46.836;16.820;2023-11-22T04:28:29;10.70;84.40
64468;DHT22;50853;46.836;16.820;2023-11-22T04:30:58;10.70;84.30
64468;DHT22;50853;46.836;16.820;2023-11-22T04:33:24;10.70;84.40
64468;DHT22;50853;46.836;16.820;2023-11-22T04:35:50;10.70;84.30
64468;DHT22;50853;46.836;16.820;2023-11-22T04:38:16;10.70;84.30
64468;DHT22;50853;46.836;16.820;2023-11-22T04:40:43;10.70;84.30
64468;DHT22;50853;46.836;16.820;2023-11-22T04:43:09;10.70;84.30
64468;DHT22;50853;46.836;16.820;2023-11-22T04:45:35;10.70;84.30
64468;DHT22;50853;46.836;16.820;2023-11-22T04:48:01;10.70;84.10
64468;DHT22;50853;46.836;16.820;2023-11-22T04:50:27;10.70;84.30
64468;DHT22;50853;46.836;16.820;2023-11-22T04:52:53;10.70;84.20
64468;DHT22;50853;46.836;16.820;2023-11-22T04:55:18;10.70;84.30
64468;DHT22;50853;46.836;16.820;2023-11-22T04:57:45;10.70;84.20
64468;DHT22;50853;46.836;16.820;2023-11-22T05:00:11;10.70;84.20
64468;DHT22;50853;46.836;16.820;2023-11-22T05:02:38;10.70;84.10
64468;DHT22;50853;46.836;16.820;2023-11-22T05:05:05;10.70;84.10
64468;DHT22;50853;46.836;16.820;2023-11-22T05:07:31;10.70;84.20
64468;DHT22;50853;46.836;16.820;2023-11-22T05:09:57;10.70;84.10
64468;DHT22;50853;46.836;16.820;2023-11-22T05:12:23;10.70;84.00
64468;DHT22;50853;46.836;16.820;2023-11-22T05:14:49;10.70;84.10
64468;DHT22;50853;46.836;16.820;2023-11-22T05:17:15;10.70;84.20
64468;DHT22;50853;46.836;16.820;2023-11-22T05:19:41;10.70;84.10
64468;DHT22;50853;46.836;16.820;2023-11-22T05:22:07;10.70;84.10
64468;DHT22;50853;46.836;16.820;2023-11-22T05:24:33;10.70;83.90
64468;DHT22;50853;46.836;16.820;2023-11-22T05:27:00;10.70;84.00
64468;DHT22;50853;46.836;16.820;2023-11-22T05:29:27;10.70;84.00
64468;DHT22;50853;46.836;16.820;2023-11-22T05:31:53;10.70;84.00
64468;DHT22;50853;46.836;16.820;2023-11-22T05:34:19;10.70;84.00
64468;DHT22;50853;46.836;16.820;2023-11-22T05:36:45;10.70;84.00
64468;DHT22;50853;46.836;16.820;2023-11-22T05:39:11;10.70;84.00
64468;DHT22;50853;46.836;16.820;2023-11-22T05:41:38;10.70;83.90
64468;DHT22;50853;46.836;16.820;2023-11-22T05:44:04;10.70;84.60
64468;DHT22;50853;46.836;16.820;2023-11-22T05:46:29;10.70;84.10
64468;DHT22;50853;46.836;16.820;2023-11-22T05:48:55;10.70;83.90
64468;DHT22;50853;46.836;16.820;2023-11-22T05:51:21;10.70;84.10
64468;DHT22;50853;46.836;16.820;2023-11-22T05:53:47;10.70;84.00
64468;DHT22;50853;46.836;16.820;2023-11-22T05:56:13;10.70;83.90
64468;DHT22;50853;46.836;16.820;2023-11-22T05:58:40;10.70;83.90
64468;DHT22;50853;46.836;16.820;2023-11-22T06:01:09;10.70;83.70
64468;DHT22;50853;46.836;16.820;2023-11-22T06:03:37;10.60;83.70
64468;DHT22;50853;46.836;16.820;2023-11-22T06:06:05;10.70;83.80
64468;DHT22;50853;46.836;16.820;2023-11-22T06:08:31;10.70;83.90
64468;DHT22;50853;46.836;16.820;2023-11-22T06:10:56;10.70;83.80
64468;DHT22;50853;46.836;16.820;2023-11-22T06:13:23;10.60;83.70
64468;DHT22;50853;46.836;16.820;2023-11-22T06:15:49;10.60;83.90
64468;DHT22;50853;46.836;16.820;2023-11-22T06:18:16;10.60;83.80
64468;DHT22;50853;46.836;16.820;2023-11-22T06:20:42;10.60;83.80
64468;DHT22;50853;46.836;16.820;2023-11-22T06:23:08;10.60;83.80
64468;DHT22;50853;46.836;16.820;2023-11-22T06:25:34;10.60;83.80
64468;DHT22;50853;46.836;16.820;2023-11-22T06:28:03;10.60;83.90
64468;DHT22;50853;46.836;16.820;2023-11-22T06:30:29;10.60;83.80
64468;DHT22;50853;46.836;16.820;2023-11-22T06:32:56;10.60;83.80
64468;DHT22;50853;46.836;16.820;2023-11-22T06:35:22;10.60;83.70
64468;DHT22;50853;46.836;16.820;2023-11-22T06:37:48;10.60;83.60
64468;DHT22;50853;46.836;16.820;2023-11-22T06:40:14;10.60;83.70
64468;DHT22;50853;46.836;16.820;2023-11-22T06:42:43;10.60;83.60
64468;DHT22;50853;46.836;16.820;2023-11-22T06:45:09;10.60;83.70
64468;DHT22;50853;46.836;16.820;2023-11-22T06:47:39;10.60;83.70
64468;DHT22;50853;46.836;16.820;2023-11-22T06:50:05;10.60;83.60
64468;DHT22;50853;46.836;16.820;2023-11-22T06:52:38;10.60;83.70
64468;DHT22;50853;46.836;16.820;2023-11-22T06:55:08;10.60;83.60
64468;DHT22;50853;46.836;16.820;2023-11-22T06:57:34;10.60;83.50
64468;DHT22;50853;46.836;16.820;2023-11-22T07:00:00;10.60;83.60
64468;DHT22;50853;46.836;16.820;2023-11-22T07:02:35;10.60;83.50
64468;DHT22;50853;46.836;16.820;2023-11-22T07:05:02;10.60;83.60
64468;DHT22;50853;46.836;16.820;2023-11-22T07:07:35;10.60;83.50
64468;DHT22;50853;46.836;16.820;2023-11-22T07:10:01;10.60;83.60
64468;DHT22;50853;46.836;16.820;2023-11-22T07:12:27;10.60;83.50
64468;DHT22;50853;46.836;16.820;2023-11-22T07:14:53;10.60;83.60
64468;DHT22;50853;46.836;16.820;2023-11-22T07:17:19;10.60;83.60
64468;DHT22;50853;46.836;16.820;2023-11-22T07:19:45;10.60;83.50
64468;DHT22;50853;46.836;16.820;2023-11-22T07:22:16;10.60;83.60
64468;DHT22;50853;46.836;16.820;2023-11-22T07:24:47;10.60;83.50
64468;DHT22;50853;46.836;16.820;2023-11-22T07:27:15;10.60;83.40
64468;DHT22;50853;46.836;16.820;2023-11-22T07:29:41;10.60;83.60
64468;DHT22;50853;46.836;16.820;2023-11-22T07:32:08;10.60;83.50
64468;DHT22;50853;46.836;16.820;2023-11-22T07:34:38;10.60;83.50
64468;DHT22;50853;46.836;16.820;2023-11-22T07:37:05;10.60;83.40
64468;DHT22;50853;46.836;16.820;2023-11-22T07:39:35;10.60;83.50
64468;DHT22;50853;46.836;16.820;2023-11-22T07:42:02;10.60;83.50
64468;DHT22;50853;46.836;16.820;2023-11-22T07:44:28;10.60;83.50
64468;DHT22;50853;46.836;16.820;2023-11-22T07:46:59;10.60;83.50
64468;DHT22;50853;46.836;16.820;2023-11-22T07:49:25;10.60;83.40
64468;DHT22;50853;46.836;16.820;2023-11-22T07:51:51;10.60;83.40
64468;DHT22;50853;46.836;16.820;2023-11-22T07:54:19;10.60;83.50
64468;DHT22;50853;46.836;16.820;2023-11-22T07:56:51;10.60;83.50
64468;DHT22;50853;46.836;16.820;2023-11-22T07:59:18;10.60;83.60
64468;DHT22;50853;46.836;16.820;2023-11-22T08:01:45;10.60;83.50
64468;DHT22;50853;46.836;16.820;2023-11-22T08:04:13;10.60;83.50
64468;DHT22;50853;46.836;16.820;2023-11-22T08:06:39;10.60;83.40
64468;DHT22;50853;46.836;16.820;2023-11-22T08:09:06;10.60;83.40
64468;DHT22;50853;46.836;16.820;2023-11-22T08:11:34;10.60;83.40
64468;DHT22;50853;46.836;16.820;2023-11-22T08:14:02;10.60;83.40
64468;DHT22;50853;46.836;16.820;2023-11-22T08:16:28;10.60;83.40
64468;DHT22;50853;46.836;16.820;2023-11-22T08:18:54;10.60;84.00
64468;DHT22;50853;46.836;16.820;2023-11-22T08:21:19;10.60;83.40
64468;DHT22;50853;46.836;16.820;2023-11-22T08:23:46;10.60;83.40
64468;DHT22;50853;46.836;16.820;2023-11-22T08:26:15;10.60;83.40
64468;DHT22;50853;46.836;16.820;2023-11-22T08:28:41;10.60;83.30
64468;DHT22;50853;46.836;16.820;2023-11-22T08:31:07;10.60;83.30
64468;DHT22;50853;46.836;16.820;2023-11-22T08:33:37;10.60;83.20
64468;DHT22;50853;46.836;16.820;2023-11-22T08:36:05;10.60;83.30
64468;DHT22;50853;46.836;16.820;2023-11-22T08:38:31;10.60;83.20
64468;DHT22;50853;46.836;16.820;2023-11-22T08:41:04;10.60;83.30
64468;DHT22;50853;46.836;16.820;2023-11-22T08:43:32;10.60;83.30
64468;DHT22;50853;46.836;16.820;2023-11-22T08:46:01;10.60;83.30
64468;DHT22;50853;46.836;16.820;2023-11-22T08:48:30;10.60;83.20
64468;DHT22;50853;46.836;16.820;2023-11-22T08:50:56;10.60;83.30
64468;DHT22;50853;46.836;16.820;2023-11-22T08:53:23;10.60;83.30
64468;DHT22;50853;46.836;16.820;2023-11-22T08:55:48;10.60;83.40
64468;DHT22;50853;46.836;16.820;2023-11-22T08:58:14;10.60;83.40
64468;DHT22;50853;46.836;16.820;2023-11-22T09:00:41;10.60;83.20
64468;DHT22;50853;46.836;16.820;2023-11-22T09:03:08;10.60;83.20
64468;DHT22;50853;46.836;16.820;2023-11-22T09:05:36;10.60;83.30
64468;DHT22;50853;46.836;16.820;2023-11-22T09:08:02;10.60;83.40
64468;DHT22;50853;46.836;16.820;2023-11-22T09:10:29;10.70;83.30
64468;DHT22;50853;46.836;16.820;2023-11-22T09:12:56;10.60;83.30
64468;DHT22;50853;46.836;16.820;2023-11-22T09:15:25;10.70;83.20
64468;DHT22;50853;46.836;16.820;2023-11-22T09:17:52;10.70;83.20
64468;DHT22;50853;46.836;16.820;2023-11-22T09:20:19;10.70;83.20
64468;DHT22;50853;46.836;16.820;2023-11-22T09:22:47;10.70;83.20
64468;DHT22;50853;46.836;16.820;2023-11-22T09:25:18;10.70;83.10
64468;DHT22;50853;46.836;16.820;2023-11-22T09:27:47;10.70;82.90
64468;DHT22;50853;46.836;16.820;2023-11-22T09:30:24;10.70;82.80
64468;DHT22;50853;46.836;16.820;2023-11-22T09:33:01;10.80;82.60
64468;DHT22;50853;46.836;16.820;2023-11-22T09:35:28;10.70;82.50
64468;DHT22;50853;46.836;16.820;2023-11-22T09:38:00;10.80;82.60
64468;DHT22;50853;46.836;16.820;2023-11-22T09:40:27;10.80;82.50
64468;DHT22;50853;46.836;16.820;2023-11-22T09:42:55;10.80;82.50
64468;DHT22;50853;46.836;16.820;2023-11-22T09:45:23;10.80;82.40
64468;DHT22;50853;46.836;16.820;2023-11-22T09:47:50;10.80;82.50
64468;DHT22;50853;46.836;16.820;2023-11-22T09:52:55;10.80;82.20
64468;DHT22;50853;46.836;16.820;2023-11-22T09:55:28;10.80;82.30
64468;DHT22;50853;46.836;16.820;2023-11-22T09:57:57;10.80;82.30
64468;DHT22;50853;46.836;16.820;2023-11-22T10:00:24;10.80;82.20
64468;DHT22;50853;46.836;16.820;2023-11-22T10:02:53;10.90;82.20
64468;DHT22;50853;46.836;16.820;2023-11-22T10:05:20;10.90;82.20
64468;DHT22;50853;46.836;16.820;2023-11-22T10:07:46;10.90;82.00
64468;DHT22;50853;46.836;16.820;2023-11-22T10:10:15;10.90;81.90
64468;DHT22;50853;46.836;16.820;2023-11-22T10:12:43;10.90;81.90
64468;DHT22;50853;46.836;16.820;2023-11-22T10:15:16;11.00;81.90
64468;DHT22;50853;46.836;16.820;2023-11-22T10:17:54;11.00;81.90
64468;DHT22;50853;46.836;16.820;2023-11-22T10:20:42;11.00;82.20
64468;DHT22;50853;46.836;16.820;2023-11-22T10:23:09;11.00;81.90
64468;DHT22;50853;46.836;16.820;2023-11-22T10:25:54;11.00;82.00
64468;DHT22;50853;46.836;16.820;2023-11-22T10:28:22;11.00;82.00
64468;DHT22;50853;46.836;16.820;2023-11-22T10:30:51;11.00;82.00
64468;DHT22;50853;46.836;16.820;2023-11-22T10:33:18;11.00;82.20
64468;DHT22;50853;46.836;16.820;2023-11-22T10:35:49;11.00;82.20
64468;DHT22;50853;46.836;16.820;2023-11-22T10:38:16;11.00;82.30
64468;DHT22;50853;46.836;16.820;2023-11-22T10:40:42;11.00;82.40
64468;DHT22;50853;46.836;16.820;2023-11-22T10:43:12;10.90;82.40
64468;DHT22;50853;46.836;16.820;2023-11-22T10:45:38;10.90;82.20
64468;DHT22;50853;46.836;16.820;2023-11-22T10:48:05;10.90;82.30
64468;DHT22;50853;46.836;16.820;2023-11-22T10:50:31;10.90;82.30
64468;DHT22;50853;46.836;16.820;2023-11-22T10:52:58;11.00;82.20
64468;DHT22;50853;46.836;16.820;2023-11-22T10:55:27;10.90;82.10
64468;DHT22;50853;46.836;16.820;2023-11-22T10:57:56;10.90;82.00
64468;DHT22;50853;46.836;16.820;2023-11-22T11:00:22;10.90;82.00
64468;DHT22;50853;46.836;16.820;2023-11-22T11:02:59;11.00;82.00
64468;DHT22;50853;46.836;16.820;2023-11-22T11:05:31;11.00;82.10
64468;DHT22;50853;46.836;16.820;2023-11-22T11:08:12;11.00;82.00
64468;DHT22;50853;46.836;16.820;2023-11-22T11:10:43;11.00;82.10
64468;DHT22;50853;46.836;16.820;2023-11-22T11:13:10;11.00;81.80
64468;DHT22;50853;46.836;16.820;2023-11-22T11:15:42;11.00;81.40
64468;DHT22;50853;46.836;16.820;2023-11-22T11:18:14;11.10;81.00
64468;DHT22;50853;46.836;16.820;2023-11-22T11:20:52;11.10;81.00
64468;DHT22;50853;46.836;16.820;2023-11-22T11:23:28;11.20;80.70
64468;DHT22;50853;46.836;16.820;2023-11-22T11:25:58;11.20;80.10
64468;DHT22;50853;46.836;16.820;2023-11-22T11:28:25;11.30;79.70
64468;DHT22;50853;46.836;16.820;2023-11-22T11:30:53;11.30;79.40
64468;DHT22;50853;46.836;16.820;2023-11-22T11:33:55;11.40;79.70
64468;DHT22;50853;46.836;16.820;2023-11-22T11:36:29;11.40;79.30
64468;DHT22;50853;46.836;16.820;2023-11-22T11:39:00;11.50;79.00
64468;DHT22;50853;46.836;16.820;2023-11-22T11:41:28;11.50;78.90
64468;DHT22;50853;46.836;16.820;2023-11-22T11:43:56;11.50;79.10
64468;DHT22;50853;46.836;16.820;2023-11-22T11:46:23;11.40;80.00
64468;DHT22;50853;46.836;16.820;2023-11-22T11:48:51;11.40;80.30
64468;DHT22;50853;46.836;16.820;2023-11-22T11:51:18;11.30;80.60
64468;DHT22;50853;46.836;16.820;2023-11-22T11:53:47;11.30;80.60
64468;DHT22;50853;46.836;16.820;2023-11-22T11:56:15;11.40;80.20
64468;DHT22;50853;46.836;16.820;2023-11-22T11:58:42;11.40;79.90
64468;DHT22;50853;46.836;16.820;2023-11-22T12:01:11;11.40;79.50
64468;DHT22;50853;46.836;16.820;2023-11-22T12:03:37;11.50;79.00
64468;DHT22;50853;46.836;16.820;2023-11-22T12:06:05;11.60;78.70
64468;DHT22;50853;46.836;16.820;2023-11-22T12:08:31;11.60;78.40
64468;DHT22;50853;46.836;16.820;2023-11-22T12:11:02;11.70;78.30
64468;DHT22;50853;46.836;16.820;2023-11-22T12:13:30;11.70;77.90
64468;DHT22;50853;46.836;16.820;2023-11-22T12:15:56;11.80;77.70
64468;DHT22;50853;46.836;16.820;2023-11-22T12:18:23;11.70;77.80
64468;DHT22;50853;46.836;16.820;2023-11-22T12:20:56;11.80;77.90
64468;DHT22;50853;46.836;16.820;2023-11-22T12:23:24;11.80;77.70
64468;DHT22;50853;46.836;16.820;2023-11-22T12:25:54;11.80;77.40
64468;DHT22;50853;46.836;16.820;2023-11-22T12:28:23;11.90;77.70
64468;DHT22;50853;46.836;16.820;2023-11-22T12:30:49;11.90;77.20
64468;DHT22;50853;46.836;16.820;2023-11-22T12:33:16;11.90;76.80
64468;DHT22;50853;46.836;16.820;2023-11-22T12:35:43;12.00;77.20
64468;DHT22;50853;46.836;16.820;2023-11-22T12:38:12;12.00;77.10
64468;DHT22;50853;46.836;16.820;2023-11-22T12:40:42;12.00;76.90
64468;DHT22;50853;46.836;16.820;2023-11-22T12:43:08;12.00;77.20
64468;DHT22;50853;46.836;16.820;2023-11-22T12:45:35;12.00;77.20
64468;DHT22;50853;46.836;16.820;2023-11-22T12:48:24;12.00;77.20
64468;DHT22;50853;46.836;16.820;2023-11-22T12:50:52;12.00;76.60
64468;DHT22;50853;46.836;16.820;2023-11-22T12:53:19;12.00;76.50
64468;DHT22;50853;46.836;16.820;2023-11-22T12:55:49;12.00;76.50
64468;DHT22;50853;46.836;16.820;2023-11-22T12:58:15;12.10;76.10
64468;DHT22;50853;46.836;16.820;2023-11-22T13:00:43;12.10;76.50
64468;DHT22;50853;46.836;16.820;2023-11-22T13:03:09;12.10;76.20
64468;DHT22;50853;46.836;16.820;2023-11-22T13:05:37;12.00;76.50
64468;DHT22;50853;46.836;16.820;2023-11-22T13:08:03;12.00;76.60
64468;DHT22;50853;46.836;16.820;2023-11-22T13:10:32;12.00;76.80
64468;DHT22;50853;46.836;16.820;2023-11-22T13:12:58;12.00;76.70
64468;DHT22;50853;46.836;16.820;2023-11-22T13:15:24;12.00;76.90
64468;DHT22;50853;46.836;16.820;2023-11-22T13:17:52;12.00;77.20
64468;DHT22;50853;46.836;16.820;2023-11-22T13:20:25;11.90;77.30
64468;DHT22;50853;46.836;16.820;2023-11-22T13:22:55;11.90;77.30
64468;DHT22;50853;46.836;16.820;2023-11-22T13:25:21;11.90;77.60
64468;DHT22;50853;46.836;16.820;2023-11-22T13:27:53;11.90;77.70
64468;DHT22;50853;46.836;16.820;2023-11-22T13:30:20;11.90;77.60
64468;DHT22;50853;46.836;16.820;2023-11-22T13:32:49;11.90;77.40
64468;DHT22;50853;46.836;16.820;2023-11-22T13:35:15;11.80;77.60
64468;DHT22;50853;46.836;16.820;2023-11-22T13:37:46;11.80;77.60
64468;DHT22;50853;46.836;16.820;2023-11-22T13:40:18;11.80;77.60
64468;DHT22;50853;46.836;16.820;2023-11-22T13:42:48;11.80;77.80
64468;DHT22;50853;46.836;16.820;2023-11-22T13:45:16;11.80;77.90
64468;DHT22;50853;46.836;16.820;2023-11-22T13:47:53;11.80;77.80
64468;DHT22;50853;46.836;16.820;2023-11-22T13:50:23;11.80;77.90
64468;DHT22;50853;46.836;16.820;2023-11-22T13:52:53;11.70;77.80
64468;DHT22;50853;46.836;16.820;2023-11-22T13:55:20;11.70;77.90
64468;DHT22;50853;46.836;16.820;2023-11-22T13:57:57;11.70;78.30
64468;DHT22;50853;46.836;16.820;2023-11-22T14:00:29;11.70;78.20
64468;DHT22;50853;46.836;16.820;2023-11-22T14:02:59;11.60;78.60
64468;DHT22;50853;46.836;16.820;2023-11-22T14:05:32;11.60;78.60
64468;DHT22;50853;46.836;16.820;2023-11-22T14:07:58;11.60;78.80
64468;DHT22;50853;46.836;16.820;2023-11-22T14:10:24;11.60;79.00
64468;DHT22;50853;46.836;16.820;2023-11-22T14:12:51;11.50;78.70
64468;DHT22;50853;46.836;16.820;2023-11-22T14:15:17;11.50;79.10
64468;DHT22;50853;46.836;16.820;2023-11-22T14:17:43;11.50;79.10
64468;DHT22;50853;46.836;16.820;2023-11-22T14:20:09;11.50;79.30
64468;DHT22;50853;46.836;16.820;2023-11-22T14:22:36;11.50;79.40
64468;DHT22;50853;46.836;16.820;2023-11-22T14:25:03;11.50;79.60
64468;DHT22;50853;46.836;16.820;2023-11-22T14:27:30;11.40;79.60
64468;DHT22;50853;46.836;16.820;2023-11-22T14:29:56;11.40;79.80
64468;DHT22;50853;46.836;16.820;2023-11-22T14:32:22;11.40;79.70
64468;DHT22;50853;46.836;16.820;2023-11-22T14:34:48;11.40;79.80
64468;DHT22;50853;46.836;16.820;2023-11-22T14:37:15;11.40;79.90
64468;DHT22;50853;46.836;16.820;2023-11-22T14:39:41;11.40;80.00
64468;DHT22;50853;46.836;16.820;2023-11-22T14:42:08;11.30;80.10
64468;DHT22;50853;46.836;16.820;2023-11-22T14:44:34;11.30;80.00
64468;DHT22;50853;46.836;16.820;2023-11-22T14:47:03;11.30;80.60
64468;DHT22;50853;46.836;16.820;2023-11-22T14:49:35;11.30;80.10
64468;DHT22;50853;46.836;16.820;2023-11-22T14:52:01;11.30;80.40
64468;DHT22;50853;46.836;16.820;2023-11-22T14:54:30;11.30;80.40
64468;DHT22;50853;46.836;16.820;2023-11-22T14:56:55;11.30;80.40
64468;DHT22;50853;46.836;16.820;2023-11-22T14:59:26;11.20;80.50
64468;DHT22;50853;46.836;16.820;2023-11-22T15:01:52;11.20;80.70
64468;DHT22;50853;46.836;16.820;2023-11-22T15:04:18;11.20;80.60
64468;DHT22;50853;46.836;16.820;2023-11-22T15:06:45;11.20;80.60
64468;DHT22;50853;46.836;16.820;2023-11-22T15:09:11;11.20;80.60
64468;DHT22;50853;46.836;16.820;2023-11-22T15:11:41;11.20;80.60
64468;DHT22;50853;46.836;16.820;2023-11-22T15:14:07;11.20;80.60
64468;DHT22;50853;46.836;16.820;2023-11-22T15:16:33;11.20;80.70
64468;DHT22;50853;46.836;16.820;2023-11-22T15:19:02;11.20;80.70
64468;DHT22;50853;46.836;16.820;2023-11-22T15:21:29;11.10;80.80